sensor_id;sensor_type;location;lat;lon;timestamp;P1;durP1;ratioP1;P2;durP2;ratioP2
5553;SDS011;2800;49.528;8.666;2022-11-02T00:01:50;11.93;;;3.23;;
5553;SDS011;2800;49.528;8.666;2022-11-02T00:04:15;11.97;;;3.20;;
5553;SDS011;2800;49.528;8.666;2022-11-02T00:06:41;13.67;;;3.17;;
5553;SDS011;2800;49.528;8.666;2022-11-02T00:09:08;8.60;;;3.33;;
5553;SDS011;2800;49.528;8.666;2022-11-02T00:11:35;10.87;;;3.03;;
5553;SDS011;2800;49.528;8.666;2022-11-02T00:14:01;11.27;;;3.43;;
5553;SDS011;2800;49.528;8.666;2022-11-02T00:16:27;11.40;;;3.30;;
5553;SDS011;2800;49.528;8.666;2022-11-02T00:18:54;9.23;;;3.10;;
5553;SDS011;2800;49.528;8.666;2022-11-02T00:21:21;12.47;;;3.40;;
5553;SDS011;2800;49.528;8.666;2022-11-02T00:23:49;7.23;;;2.97;;
5553;SDS011;2800;49.528;8.666;2022-11-02T00:26:14;8.80;;;2.97;;
5553;SDS011;2800;49.528;8.666;2022-11-02T00:28:41;11.47;;;3.30;;
5553;SDS011;2800;49.528;8.666;2022-11-02T00:31:06;12.13;;;3.30;;
5553;SDS011;2800;49.528;8.666;2022-11-02T00:33:32;9.03;;;2.83;;
5553;SDS011;2800;49.528;8.666;2022-11-02T00:35:57;12.03;;;3.40;;
5553;SDS011;2800;49.528;8.666;2022-11-02T00:38:23;12.70;;;3.23;;
5553;SDS011;2800;49.528;8.666;2022-11-02T00:40:49;10.27;;;3.10;;
5553;SDS011;2800;49.528;8.666;2022-11-02T00:43:14;8.00;;;2.80;;
5553;SDS011;2800;49.528;8.666;2022-11-02T00:45:40;14.70;;;3.17;;
5553;SDS011;2800;49.528;8.666;2022-11-02T00:48:05;14.23;;;2.87;;
5553;SDS011;2800;49.528;8.666;2022-11-02T00:50:31;16.83;;;3.33;;
5553;SDS011;2800;49.528;8.666;2022-11-02T00:52:56;10.60;;;3.93;;
5553;SDS011;2800;49.528;8.666;2022-11-02T00:55:22;9.87;;;2.87;;
5553;SDS011;2800;49.528;8.666;2022-11-02T00:57:48;10.07;;;3.03;;
5553;SDS011;2800;49.528;8.666;2022-11-02T01:00:13;16.33;;;3.10;;
5553;SDS011;2800;49.528;8.666;2022-11-02T01:02:40;9.50;;;2.93;;
5553;SDS011;2800;49.528;8.666;2022-11-02T01:05:06;10.50;;;3.20;;
5553;SDS011;2800;49.528;8.666;2022-11-02T01:07:33;8.80;;;3.10;;
5553;SDS011;2800;49.528;8.666;2022-11-02T01:09:59;12.43;;;3.33;;
5553;SDS011;2800;49.528;8.666;2022-11-02T01:12:24;11.00;;;3.20;;
5553;SDS011;2800;49.528;8.666;2022-11-02T01:14:50;14.20;;;3.43;;
5553;SDS011;2800;49.528;8.666;2022-11-02T01:17:16;13.93;;;3.03;;
5553;SDS011;2800;49.528;8.666;2022-11-02T01:19:43;11.40;;;3.27;;
5553;SDS011;2800;49.528;8.666;2022-11-02T01:22:08;8.67;;;2.73;;
5553;SDS011;2800;49.528;8.666;2022-11-02T01:24:34;12.13;;;3.30;;
5553;SDS011;2800;49.528;8.666;2022-11-02T01:27:00;12.20;;;3.10;;
5553;SDS011;2800;49.528;8.666;2022-11-02T01:29:25;11.30;;;3.17;;
5553;SDS011;2800;49.528;8.666;2022-11-02T01:31:51;11.50;;;3.37;;
5553;SDS011;2800;49.528;8.666;2022-11-02T01:34:18;12.30;;;3.17;;
5553;SDS011;2800;49.528;8.666;2022-11-02T01:36:44;19.10;;;3.43;;
5553;SDS011;2800;49.528;8.666;2022-11-02T01:39:10;12.63;;;3.20;;
5553;SDS011;2800;49.528;8.666;2022-11-02T01:41:37;11.00;;;3.03;;
5553;SDS011;2800;49.528;8.666;2022-11-02T01:44:02;10.23;;;3.17;;
5553;SDS011;2800;49.528;8.666;2022-11-02T01:46:42;9.93;;;3.07;;
5553;SDS011;2800;49.528;8.666;2022-11-02T01:49:15;8.00;;;3.27;;
5553;SDS011;2800;49.528;8.666;2022-11-02T01:52:19;8.47;;;2.83;;
5553;SDS011;2800;49.528;8.666;2022-11-02T01:54:47;10.67;;;2.87;;
5553;SDS011;2800;49.528;8.666;2022-11-02T01:57:18;8.77;;;3.00;;
5553;SDS011;2800;49.528;8.666;2022-11-02T01:59:47;10.37;;;3.17;;
5553;SDS011;2800;49.528;8.666;2022-11-02T02:02:30;10.67;;;3.63;;
5553;SDS011;2800;49.528;8.666;2022-11-02T02:05:01;11.17;;;3.53;;
5553;SDS011;2800;49.528;8.666;2022-11-02T02:07:32;12.40;;;3.50;;
5553;SDS011;2800;49.528;8.666;2022-11-02T02:10:01;10.80;;;3.70;;
5553;SDS011;2800;49.528;8.666;2022-11-02T02:12:28;11.53;;;3.33;;
5553;SDS011;2800;49.528;8.666;2022-11-02T02:14:55;13.37;;;3.57;;
5553;SDS011;2800;49.528;8.666;2022-11-02T02:17:25;14.63;;;3.57;;
5553;SDS011;2800;49.528;8.666;2022-11-02T02:22:51;10.10;;;3.40;;
5553;SDS011;2800;49.528;8.666;2022-11-02T02:28:52;10.37;;;3.40;;
5553;SDS011;2800;49.528;8.666;2022-11-02T02:31:39;12.50;;;3.57;;
5553;SDS011;2800;49.528;8.666;2022-11-02T02:34:18;13.40;;;4.03;;
5553;SDS011;2800;49.528;8.666;2022-11-02T02:36:48;13.13;;;3.17;;
5553;SDS011;2800;49.528;8.666;2022-11-02T02:42:09;7.43;;;2.80;;
5553;SDS011;2800;49.528;8.666;2022-11-02T02:44:55;9.57;;;3.37;;
5553;SDS011;2800;49.528;8.666;2022-11-02T02:47:26;11.60;;;3.63;;
5553;SDS011;2800;49.528;8.666;2022-11-02T02:49:55;11.27;;;3.10;;
5553;SDS011;2800;49.528;8.666;2022-11-02T02:52:27;11.33;;;3.37;;
5553;SDS011;2800;49.528;8.666;2022-11-02T02:54:57;11.70;;;3.43;;
5553;SDS011;2800;49.528;8.666;2022-11-02T02:57:23;20.93;;;3.57;;
5553;SDS011;2800;49.528;8.666;2022-11-02T02:59:51;12.00;;;3.13;;
5553;SDS011;2800;49.528;8.666;2022-11-02T03:02:20;15.30;;;3.47;;
5553;SDS011;2800;49.528;8.666;2022-11-02T03:04:49;11.17;;;3.20;;
5553;SDS011;2800;49.528;8.666;2022-11-02T03:07:19;8.63;;;2.70;;
5553;SDS011;2800;49.528;8.666;2022-11-02T03:09:50;12.07;;;3.40;;
5553;SDS011;2800;49.528;8.666;2022-11-02T03:20:22;11.43;;;3.37;;
5553;SDS011;2800;49.528;8.666;2022-11-02T03:22:51;12.80;;;3.47;;
5553;SDS011;2800;49.528;8.666;2022-11-02T03:25:38;14.93;;;3.00;;
5553;SDS011;2800;49.528;8.666;2022-11-02T03:28:14;11.47;;;3.20;;
5553;SDS011;2800;49.528;8.666;2022-11-02T03:30:58;9.73;;;3.20;;
5553;SDS011;2800;49.528;8.666;2022-11-02T03:33:34;10.17;;;3.20;;
5553;SDS011;2800;49.528;8.666;2022-11-02T03:36:31;10.97;;;3.43;;
5553;SDS011;2800;49.528;8.666;2022-11-02T03:39:02;13.50;;;3.90;;
5553;SDS011;2800;49.528;8.666;2022-11-02T03:41:33;11.83;;;3.10;;
5553;SDS011;2800;49.528;8.666;2022-11-02T03:44:10;12.60;;;3.47;;
5553;SDS011;2800;49.528;8.666;2022-11-02T03:46:40;15.60;;;4.53;;
5553;SDS011;2800;49.528;8.666;2022-11-02T03:49:09;12.47;;;3.10;;
5553;SDS011;2800;49.528;8.666;2022-11-02T03:51:38;15.70;;;3.40;;
5553;SDS011;2800;49.528;8.666;2022-11-02T03:54:21;14.23;;;3.43;;
5553;SDS011;2800;49.528;8.666;2022-11-02T03:57:03;12.03;;;3.10;;
5553;SDS011;2800;49.528;8.666;2022-11-02T03:59:31;12.43;;;3.90;;
5553;SDS011;2800;49.528;8.666;2022-11-02T04:01:57;11.30;;;3.53;;
5553;SDS011;2800;49.528;8.666;2022-11-02T04:04:24;9.00;;;2.90;;
5553;SDS011;2800;49.528;8.666;2022-11-02T04:06:49;15.50;;;3.43;;
5553;SDS011;2800;49.528;8.666;2022-11-02T04:09:16;12.87;;;3.10;;
5553;SDS011;2800;49.528;8.666;2022-11-02T04:11:42;12.10;;;3.10;;
5553;SDS011;2800;49.528;8.666;2022-11-02T04:14:26;9.53;;;2.90;;
5553;SDS011;2800;49.528;8.666;2022-11-02T04:17:05;12.60;;;3.27;;
5553;SDS011;2800;49.528;8.666;2022-11-02T04:19:53;6.57;;;2.40;;
5553;SDS011;2800;49.528;8.666;2022-11-02T04:22:19;10.40;;;3.27;;
5553;SDS011;2800;49.528;8.666;2022-11-02T04:25:03;12.57;;;3.30;;
5553;SDS011;2800;49.528;8.666;2022-11-02T04:27:46;10.60;;;3.17;;
5553;SDS011;2800;49.528;8.666;2022-11-02T04:30:16;13.57;;;3.57;;
5553;SDS011;2800;49.528;8.666;2022-11-02T04:32:47;12.90;;;3.43;;
5553;SDS011;2800;49.528;8.666;2022-11-02T04:35:33;10.80;;;3.33;;
5553;SDS011;2800;49.528;8.666;2022-11-02T04:37:59;10.60;;;3.37;;
5553;SDS011;2800;49.528;8.666;2022-11-02T04:40:44;9.17;;;3.10;;
5553;SDS011;2800;49.528;8.666;2022-11-02T04:43:09;10.10;;;3.30;;
5553;SDS011;2800;49.528;8.666;2022-11-02T04:45:35;12.93;;;3.10;;
5553;SDS011;2800;49.528;8.666;2022-11-02T04:48:02;10.07;;;3.93;;
5553;SDS011;2800;49.528;8.666;2022-11-02T04:50:29;10.30;;;3.73;;
5553;SDS011;2800;49.528;8.666;2022-11-02T04:52:58;11.67;;;3.30;;
5553;SDS011;2800;49.528;8.666;2022-11-02T04:55:25;10.13;;;3.30;;
5553;SDS011;2800;49.528;8.666;2022-11-02T04:57:51;13.93;;;4.00;;
5553;SDS011;2800;49.528;8.666;2022-11-02T05:00:17;13.57;;;3.30;;
5553;SDS011;2800;49.528;8.666;2022-11-02T05:02:47;12.63;;;3.30;;
5553;SDS011;2800;49.528;8.666;2022-11-02T05:05:13;11.43;;;3.73;;
5553;SDS011;2800;49.528;8.666;2022-11-02T05:07:40;10.50;;;3.30;;
5553;SDS011;2800;49.528;8.666;2022-11-02T05:10:06;16.63;;;3.90;;
5553;SDS011;2800;49.528;8.666;2022-11-02T05:12:32;14.57;;;3.90;;
5553;SDS011;2800;49.528;8.666;2022-11-02T05:14:58;13.37;;;3.80;;
5553;SDS011;2800;49.528;8.666;2022-11-02T05:17:23;14.53;;;3.10;;
5553;SDS011;2800;49.528;8.666;2022-11-02T05:19:49;23.07;;;4.17;;
5553;SDS011;2800;49.528;8.666;2022-11-02T05:22:14;9.43;;;3.00;;
5553;SDS011;2800;49.528;8.666;2022-11-02T05:24:40;10.87;;;3.13;;
5553;SDS011;2800;49.528;8.666;2022-11-02T05:27:05;12.23;;;3.20;;
5553;SDS011;2800;49.528;8.666;2022-11-02T05:29:31;14.40;;;3.87;;
5553;SDS011;2800;49.528;8.666;2022-11-02T05:31:56;14.40;;;3.80;;
5553;SDS011;2800;49.528;8.666;2022-11-02T05:34:22;14.30;;;3.97;;
5553;SDS011;2800;49.528;8.666;2022-11-02T05:36:48;11.70;;;3.97;;
5553;SDS011;2800;49.528;8.666;2022-11-02T05:39:13;14.13;;;3.43;;
5553;SDS011;2800;49.528;8.666;2022-11-02T05:41:39;12.83;;;3.30;;
5553;SDS011;2800;49.528;8.666;2022-11-02T05:44:05;16.03;;;4.07;;
5553;SDS011;2800;49.528;8.666;2022-11-02T05:46:31;12.77;;;3.57;;
5553;SDS011;2800;49.528;8.666;2022-11-02T05:48:57;10.53;;;3.77;;
5553;SDS011;2800;49.528;8.666;2022-11-02T05:51:22;10.90;;;4.23;;
5553;SDS011;2800;49.528;8.666;2022-11-02T05:53:48;13.80;;;4.30;;
5553;SDS011;2800;49.528;8.666;2022-11-02T05:56:14;14.47;;;3.87;;
5553;SDS011;2800;49.528;8.666;2022-11-02T05:58:39;13.77;;;3.63;;
5553;SDS011;2800;49.528;8.666;2022-11-02T06:01:05;14.03;;;3.60;;
5553;SDS011;2800;49.528;8.666;2022-11-02T06:03:32;15.10;;;4.33;;
5553;SDS011;2800;49.528;8.666;2022-11-02T06:05:59;12.80;;;4.33;;
5553;SDS011;2800;49.528;8.666;2022-11-02T06:08:26;11.90;;;3.93;;
5553;SDS011;2800;49.528;8.666;2022-11-02T06:10:52;11.90;;;3.80;;
5553;SDS011;2800;49.528;8.666;2022-11-02T06:13:18;15.67;;;4.40;;
5553;SDS011;2800;49.528;8.666;2022-11-02T06:15:43;13.10;;;3.27;;
5553;SDS011;2800;49.528;8.666;2022-11-02T06:18:09;13.13;;;3.33;;
5553;SDS011;2800;49.528;8.666;2022-11-02T06:20:35;12.40;;;3.77;;
5553;SDS011;2800;49.528;8.666;2022-11-02T06:23:00;10.03;;;3.40;;
5553;SDS011;2800;49.528;8.666;2022-11-02T06:25:26;18.00;;;4.00;;
5553;SDS011;2800;49.528;8.666;2022-11-02T06:27:55;14.40;;;4.13;;
5553;SDS011;2800;49.528;8.666;2022-11-02T06:30:24;12.97;;;3.97;;
5553;SDS011;2800;49.528;8.666;2022-11-02T06:32:51;16.90;;;3.80;;
5553;SDS011;2800;49.528;8.666;2022-11-02T06:35:19;15.07;;;4.93;;
5553;SDS011;2800;49.528;8.666;2022-11-02T06:37:45;16.00;;;3.73;;
5553;SDS011;2800;49.528;8.666;2022-11-02T06:40:11;9.90;;;3.73;;
5553;SDS011;2800;49.528;8.666;2022-11-02T06:42:38;12.23;;;4.13;;
5553;SDS011;2800;49.528;8.666;2022-11-02T06:45:04;9.67;;;3.60;;
5553;SDS011;2800;49.528;8.666;2022-11-02T06:47:31;12.63;;;3.50;;
5553;SDS011;2800;49.528;8.666;2022-11-02T06:49:58;11.23;;;3.53;;
5553;SDS011;2800;49.528;8.666;2022-11-02T06:52:24;13.00;;;4.17;;
5553;SDS011;2800;49.528;8.666;2022-11-02T06:54:50;12.90;;;4.10;;
5553;SDS011;2800;49.528;8.666;2022-11-02T06:57:15;13.37;;;4.13;;
5553;SDS011;2800;49.528;8.666;2022-11-02T06:59:41;14.47;;;3.97;;
5553;SDS011;2800;49.528;8.666;2022-11-02T07:02:07;12.93;;;4.67;;
5553;SDS011;2800;49.528;8.666;2022-11-02T07:04:33;17.90;;;3.57;;
5553;SDS011;2800;49.528;8.666;2022-11-02T07:06:58;13.10;;;4.00;;
5553;SDS011;2800;49.528;8.666;2022-11-02T07:09:24;16.27;;;3.90;;
5553;SDS011;2800;49.528;8.666;2022-11-02T07:11:49;15.50;;;3.93;;
5553;SDS011;2800;49.528;8.666;2022-11-02T07:14:15;13.23;;;4.13;;
5553;SDS011;2800;49.528;8.666;2022-11-02T07:16:41;11.30;;;3.70;;
5553;SDS011;2800;49.528;8.666;2022-11-02T07:19:06;18.33;;;4.20;;
5553;SDS011;2800;49.528;8.666;2022-11-02T07:21:32;14.13;;;3.87;;
5553;SDS011;2800;49.528;8.666;2022-11-02T07:23:57;12.07;;;3.67;;
5553;SDS011;2800;49.528;8.666;2022-11-02T07:26:23;14.67;;;5.10;;
5553;SDS011;2800;49.528;8.666;2022-11-02T07:28:50;29.97;;;10.60;;
5553;SDS011;2800;49.528;8.666;2022-11-02T07:31:15;14.80;;;4.73;;
5553;SDS011;2800;49.528;8.666;2022-11-02T07:33:41;14.93;;;4.20;;
5553;SDS011;2800;49.528;8.666;2022-11-02T07:36:07;15.80;;;6.37;;
5553;SDS011;2800;49.528;8.666;2022-11-02T07:38:32;29.00;;;15.70;;
5553;SDS011;2800;49.528;8.666;2022-11-02T07:40:58;16.73;;;7.00;;
5553;SDS011;2800;49.528;8.666;2022-11-02T07:43:23;24.00;;;11.90;;
5553;SDS011;2800;49.528;8.666;2022-11-02T07:45:49;25.23;;;13.93;;
5553;SDS011;2800;49.528;8.666;2022-11-02T07:48:15;16.90;;;5.70;;
5553;SDS011;2800;49.528;8.666;2022-11-02T07:50:40;18.30;;;6.73;;
5553;SDS011;2800;49.528;8.666;2022-11-02T07:53:06;14.90;;;4.10;;
5553;SDS011;2800;49.528;8.666;2022-11-02T07:55:31;16.83;;;4.13;;
5553;SDS011;2800;49.528;8.666;2022-11-02T07:57:58;14.40;;;3.93;;
5553;SDS011;2800;49.528;8.666;2022-11-02T08:00:26;9.83;;;3.30;;
5553;SDS011;2800;49.528;8.666;2022-11-02T08:02:55;11.97;;;3.80;;
5553;SDS011;2800;49.528;8.666;2022-11-02T08:05:22;12.40;;;3.80;;
5553;SDS011;2800;49.528;8.666;2022-11-02T08:07:58;17.83;;;3.90;;
5553;SDS011;2800;49.528;8.666;2022-11-02T08:10:25;11.87;;;3.90;;
5553;SDS011;2800;49.528;8.666;2022-11-02T08:12:52;9.87;;;3.47;;
5553;SDS011;2800;49.528;8.666;2022-11-02T08:15:18;20.43;;;3.80;;
5553;SDS011;2800;49.528;8.666;2022-11-02T08:17:44;10.63;;;3.60;;
5553;SDS011;2800;49.528;8.666;2022-11-02T08:20:09;13.17;;;3.30;;
5553;SDS011;2800;49.528;8.666;2022-11-02T08:22:38;23.90;;;3.70;;
5553;SDS011;2800;49.528;8.666;2022-11-02T08:25:04;15.50;;;3.50;;
5553;SDS011;2800;49.528;8.666;2022-11-02T08:27:31;12.10;;;3.43;;
5553;SDS011;2800;49.528;8.666;2022-11-02T08:29:57;10.70;;;3.10;;
5553;SDS011;2800;49.528;8.666;2022-11-02T08:32:22;15.00;;;3.07;;
5553;SDS011;2800;49.528;8.666;2022-11-02T08:34:48;12.77;;;3.03;;
5553;SDS011;2800;49.528;8.666;2022-11-02T08:37:13;16.57;;;4.33;;
5553;SDS011;2800;49.528;8.666;2022-11-02T08:39:39;11.57;;;3.60;;
5553;SDS011;2800;49.528;8.666;2022-11-02T08:42:04;13.60;;;3.97;;
5553;SDS011;2800;49.528;8.666;2022-11-02T08:44:30;20.07;;;3.63;;
5553;SDS011;2800;49.528;8.666;2022-11-02T08:46:55;14.20;;;3.77;;
5553;SDS011;2800;49.528;8.666;2022-11-02T08:49:21;12.40;;;3.27;;
5553;SDS011;2800;49.528;8.666;2022-11-02T08:51:46;15.37;;;3.90;;
5553;SDS011;2800;49.528;8.666;2022-11-02T08:54:12;12.83;;;3.53;;
5553;SDS011;2800;49.528;8.666;2022-11-02T08:56:38;21.80;;;4.43;;
5553;SDS011;2800;49.528;8.666;2022-11-02T08:59:04;15.27;;;4.23;;
5553;SDS011;2800;49.528;8.666;2022-11-02T09:01:30;14.87;;;4.00;;
5553;SDS011;2800;49.528;8.666;2022-11-02T09:03:56;15.83;;;4.83;;
5553;SDS011;2800;49.528;8.666;2022-11-02T09:06:21;12.17;;;3.93;;
5553;SDS011;2800;49.528;8.666;2022-11-02T09:08:47;14.20;;;3.50;;
5553;SDS011;2800;49.528;8.666;2022-11-02T09:11:12;11.60;;;4.30;;
5553;SDS011;2800;49.528;8.666;2022-11-02T09:13:38;15.63;;;3.70;;
5553;SDS011;2800;49.528;8.666;2022-11-02T09:16:04;15.50;;;4.40;;
5553;SDS011;2800;49.528;8.666;2022-11-02T09:18:29;13.27;;;4.23;;
5553;SDS011;2800;49.528;8.666;2022-11-02T09:20:55;15.30;;;3.97;;
5553;SDS011;2800;49.528;8.666;2022-11-02T09:23:21;17.30;;;4.40;;
5553;SDS011;2800;49.528;8.666;2022-11-02T09:25:47;21.00;;;8.90;;
5553;SDS011;2800;49.528;8.666;2022-11-02T09:28:13;12.07;;;3.80;;
5553;SDS011;2800;49.528;8.666;2022-11-02T09:30:39;16.53;;;4.80;;
5553;SDS011;2800;49.528;8.666;2022-11-02T09:33:06;16.43;;;5.67;;
5553;SDS011;2800;49.528;8.666;2022-11-02T09:35:34;15.23;;;3.80;;
5553;SDS011;2800;49.528;8.666;2022-11-02T09:38:01;14.40;;;4.50;;
5553;SDS011;2800;49.528;8.666;2022-11-02T09:40:29;14.63;;;4.23;;
5553;SDS011;2800;49.528;8.666;2022-11-02T09:43:05;13.50;;;3.20;;
5553;SDS011;2800;49.528;8.666;2022-11-02T09:48:40;11.37;;;3.67;;
5553;SDS011;2800;49.528;8.666;2022-11-02T09:56:19;12.83;;;4.07;;
5553;SDS011;2800;49.528;8.666;2022-11-02T09:58:46;10.53;;;3.70;;
5553;SDS011;2800;49.528;8.666;2022-11-02T10:01:38;12.47;;;3.93;;
5553;SDS011;2800;49.528;8.666;2022-11-02T10:07:17;13.57;;;3.73;;
5553;SDS011;2800;49.528;8.666;2022-11-02T10:10:13;12.30;;;3.30;;
5553;SDS011;2800;49.528;8.666;2022-11-02T10:12:43;12.50;;;3.53;;
5553;SDS011;2800;49.528;8.666;2022-11-02T10:15:14;12.43;;;3.53;;
5553;SDS011;2800;49.528;8.666;2022-11-02T10:17:49;14.33;;;3.30;;
5553;SDS011;2800;49.528;8.666;2022-11-02T10:20:40;12.73;;;3.10;;
5553;SDS011;2800;49.528;8.666;2022-11-02T10:23:15;15.30;;;4.00;;
5553;SDS011;2800;49.528;8.666;2022-11-02T10:25:45;10.93;;;3.27;;
5553;SDS011;2800;49.528;8.666;2022-11-02T10:28:14;18.00;;;3.53;;
5553;SDS011;2800;49.528;8.666;2022-11-02T10:30:43;18.80;;;3.53;;
5553;SDS011;2800;49.528;8.666;2022-11-02T10:33:11;12.63;;;3.40;;
5553;SDS011;2800;49.528;8.666;2022-11-02T10:41:12;9.97;;;3.23;;
5553;SDS011;2800;49.528;8.666;2022-11-02T10:52:36;16.67;;;3.30;;
5553;SDS011;2800;49.528;8.666;2022-11-02T10:55:04;9.70;;;3.03;;
5553;SDS011;2800;49.528;8.666;2022-11-02T10:57:35;17.00;;;3.67;;
5553;SDS011;2800;49.528;8.666;2022-11-02T11:05:32;8.03;;;2.60;;
5553;SDS011;2800;49.528;8.666;2022-11-02T11:08:24;12.60;;;3.27;;
5553;SDS011;2800;49.528;8.666;2022-11-02T11:10:52;10.17;;;2.93;;
5553;SDS011;2800;49.528;8.666;2022-11-02T11:13:22;7.90;;;2.90;;
5553;SDS011;2800;49.528;8.666;2022-11-02T11:15:51;9.60;;;2.87;;
5553;SDS011;2800;49.528;8.666;2022-11-02T11:18:19;12.60;;;3.13;;
5553;SDS011;2800;49.528;8.666;2022-11-02T11:20:47;14.07;;;3.90;;
5553;SDS011;2800;49.528;8.666;2022-11-02T11:31:00;9.43;;;2.90;;
5553;SDS011;2800;49.528;8.666;2022-11-02T11:33:29;12.00;;;2.77;;
5553;SDS011;2800;49.528;8.666;2022-11-02T11:35:57;10.10;;;2.53;;
5553;SDS011;2800;49.528;8.666;2022-11-02T11:38:23;11.60;;;3.20;;
5553;SDS011;2800;49.528;8.666;2022-11-02T11:40:57;10.57;;;2.80;;
5553;SDS011;2800;49.528;8.666;2022-11-02T11:43:27;10.70;;;2.57;;
5553;SDS011;2800;49.528;8.666;2022-11-02T11:45:59;12.60;;;2.80;;
5553;SDS011;2800;49.528;8.666;2022-11-02T11:48:45;12.57;;;3.37;;
5553;SDS011;2800;49.528;8.666;2022-11-02T11:51:30;9.90;;;2.90;;
5553;SDS011;2800;49.528;8.666;2022-11-02T11:54:03;11.70;;;2.70;;
5553;SDS011;2800;49.528;8.666;2022-11-02T11:56:41;9.40;;;2.87;;
5553;SDS011;2800;49.528;8.666;2022-11-02T11:59:18;9.77;;;3.07;;
5553;SDS011;2800;49.528;8.666;2022-11-02T12:01:43;11.60;;;2.87;;
5553;SDS011;2800;49.528;8.666;2022-11-02T12:04:09;9.27;;;2.67;;
5553;SDS011;2800;49.528;8.666;2022-11-02T12:09:29;10.17;;;2.80;;
5553;SDS011;2800;49.528;8.666;2022-11-02T12:14:52;14.67;;;3.50;;
5553;SDS011;2800;49.528;8.666;2022-11-02T12:31:04;7.43;;;2.50;;
5553;SDS011;2800;49.528;8.666;2022-11-02T12:42:24;9.60;;;3.10;;
5553;SDS011;2800;49.528;8.666;2022-11-02T12:44:59;6.97;;;2.87;;
5553;SDS011;2800;49.528;8.666;2022-11-02T12:47:58;9.57;;;2.70;;
5553;SDS011;2800;49.528;8.666;2022-11-02T12:56:20;10.97;;;2.97;;
5553;SDS011;2800;49.528;8.666;2022-11-02T12:58:51;11.73;;;2.57;;
5553;SDS011;2800;49.528;8.666;2022-11-02T13:04:13;9.27;;;2.80;;
5553;SDS011;2800;49.528;8.666;2022-11-02T13:06:45;15.00;;;2.90;;
5553;SDS011;2800;49.528;8.666;2022-11-02T13:11:43;9.70;;;2.60;;
5553;SDS011;2800;49.528;8.666;2022-11-02T13:14:15;10.30;;;2.73;;
5553;SDS011;2800;49.528;8.666;2022-11-02T13:16:58;10.17;;;2.50;;
5553;SDS011;2800;49.528;8.666;2022-11-02T13:19:37;7.80;;;2.53;;
5553;SDS011;2800;49.528;8.666;2022-11-02T13:22:07;11.10;;;2.70;;
5553;SDS011;2800;49.528;8.666;2022-11-02T13:24:42;14.20;;;2.50;;
5553;SDS011;2800;49.528;8.666;2022-11-02T13:27:21;8.87;;;2.40;;
5553;SDS011;2800;49.528;8.666;2022-11-02T13:29:57;8.63;;;2.70;;
5553;SDS011;2800;49.528;8.666;2022-11-02T13:32:29;5.00;;;2.00;;
5553;SDS011;2800;49.528;8.666;2022-11-02T13:35:03;8.13;;;2.90;;
5553;SDS011;2800;49.528;8.666;2022-11-02T13:37:52;7.50;;;2.60;;
5553;SDS011;2800;49.528;8.666;2022-11-02T13:40:25;9.90;;;2.90;;
5553;SDS011;2800;49.528;8.666;2022-11-02T13:51:03;10.87;;;2.50;;
5553;SDS011;2800;49.528;8.666;2022-11-02T13:53:42;7.47;;;2.40;;
5553;SDS011;2800;49.528;8.666;2022-11-02T13:56:21;9.30;;;2.50;;
5553;SDS011;2800;49.528;8.666;2022-11-02T13:58:52;18.23;;;3.13;;
5553;SDS011;2800;49.528;8.666;2022-11-02T14:01:30;8.77;;;2.60;;
5553;SDS011;2800;49.528;8.666;2022-11-02T14:04:00;10.17;;;2.70;;
5553;SDS011;2800;49.528;8.666;2022-11-02T14:06:44;8.27;;;2.60;;
5553;SDS011;2800;49.528;8.666;2022-11-02T14:09:22;9.37;;;2.63;;
5553;SDS011;2800;49.528;8.666;2022-11-02T14:11:48;9.90;;;2.67;;
5553;SDS011;2800;49.528;8.666;2022-11-02T14:14:23;9.97;;;2.60;;
5553;SDS011;2800;49.528;8.666;2022-11-02T14:48:21;8.30;;;2.87;;
5553;SDS011;2800;49.528;8.666;2022-11-02T14:51:03;14.97;;;3.17;;
5553;SDS011;2800;49.528;8.666;2022-11-02T14:53:31;11.33;;;2.70;;
5553;SDS011;2800;49.528;8.666;2022-11-02T14:56:00;9.50;;;2.77;;
5553;SDS011;2800;49.528;8.666;2022-11-02T14:58:31;13.33;;;3.00;;
5553;SDS011;2800;49.528;8.666;2022-11-02T15:01:01;17.40;;;3.50;;
5553;SDS011;2800;49.528;8.666;2022-11-02T15:03:30;15.27;;;3.23;;
5553;SDS011;2800;49.528;8.666;2022-11-02T15:14:50;11.67;;;3.33;;
5553;SDS011;2800;49.528;8.666;2022-11-02T15:19:46;11.97;;;2.83;;
5553;SDS011;2800;49.528;8.666;2022-11-02T15:25:27;10.53;;;2.50;;
5553;SDS011;2800;49.528;8.666;2022-11-02T15:28:31;14.97;;;3.37;;
5553;SDS011;2800;49.528;8.666;2022-11-02T15:30:55;11.60;;;2.63;;
5553;SDS011;2800;49.528;8.666;2022-11-02T15:33:38;11.50;;;3.23;;
5553;SDS011;2800;49.528;8.666;2022-11-02T15:36:12;13.83;;;3.67;;
5553;SDS011;2800;49.528;8.666;2022-11-02T15:38:48;12.70;;;3.33;;
5553;SDS011;2800;49.528;8.666;2022-11-02T15:41:25;7.70;;;2.53;;
5553;SDS011;2800;49.528;8.666;2022-11-02T15:46:48;11.80;;;4.73;;
5553;SDS011;2800;49.528;8.666;2022-11-02T15:52:32;12.97;;;5.50;;
5553;SDS011;2800;49.528;8.666;2022-11-02T15:55:20;19.53;;;8.60;;
5553;SDS011;2800;49.528;8.666;2022-11-02T15:58:16;16.83;;;6.10;;
5553;SDS011;2800;49.528;8.666;2022-11-02T16:03:34;18.47;;;5.03;;
5553;SDS011;2800;49.528;8.666;2022-11-02T16:05:59;17.03;;;8.33;;
5553;SDS011;2800;49.528;8.666;2022-11-02T16:08:33;11.00;;;4.50;;
5553;SDS011;2800;49.528;8.666;2022-11-02T16:11:04;12.70;;;3.30;;
5553;SDS011;2800;49.528;8.666;2022-11-02T16:13:32;13.07;;;4.10;;
5553;SDS011;2800;49.528;8.666;2022-11-02T16:16:04;13.57;;;5.03;;
5553;SDS011;2800;49.528;8.666;2022-11-02T16:18:37;11.87;;;3.53;;
5553;SDS011;2800;49.528;8.666;2022-11-02T16:21:05;10.80;;;3.47;;
5553;SDS011;2800;49.528;8.666;2022-11-02T16:23:38;9.50;;;3.20;;
5553;SDS011;2800;49.528;8.666;2022-11-02T16:26:06;15.53;;;3.80;;
5553;SDS011;2800;49.528;8.666;2022-11-02T16:28:37;12.60;;;3.90;;
5553;SDS011;2800;49.528;8.666;2022-11-02T16:31:10;10.67;;;3.50;;
5553;SDS011;2800;49.528;8.666;2022-11-02T16:33:40;11.33;;;3.50;;
5553;SDS011;2800;49.528;8.666;2022-11-02T16:36:30;10.37;;;3.53;;
5553;SDS011;2800;49.528;8.666;2022-11-02T16:39:00;13.30;;;3.97;;
5553;SDS011;2800;49.528;8.666;2022-11-02T16:41:52;11.03;;;3.80;;
5553;SDS011;2800;49.528;8.666;2022-11-02T16:49:19;13.20;;;3.57;;
5553;SDS011;2800;49.528;8.666;2022-11-02T16:51:47;10.10;;;3.10;;
5553;SDS011;2800;49.528;8.666;2022-11-02T16:54:23;11.67;;;3.53;;
5553;SDS011;2800;49.528;8.666;2022-11-02T16:56:50;8.17;;;3.00;;
5553;SDS011;2800;49.528;8.666;2022-11-02T16:59:17;10.77;;;3.40;;
5553;SDS011;2800;49.528;8.666;2022-11-02T17:01:43;12.57;;;3.47;;
5553;SDS011;2800;49.528;8.666;2022-11-02T17:04:13;11.73;;;3.90;;
5553;SDS011;2800;49.528;8.666;2022-11-02T17:06:47;11.50;;;3.40;;
5553;SDS011;2800;49.528;8.666;2022-11-02T17:09:35;9.70;;;3.67;;
5553;SDS011;2800;49.528;8.666;2022-11-02T17:12:14;10.50;;;4.00;;
5553;SDS011;2800;49.528;8.666;2022-11-02T17:14:42;13.47;;;3.07;;
5553;SDS011;2800;49.528;8.666;2022-11-02T17:20:14;15.53;;;4.63;;
5553;SDS011;2800;49.528;8.666;2022-11-02T17:27:57;15.90;;;5.50;;
5553;SDS011;2800;49.528;8.666;2022-11-02T17:33:11;11.73;;;4.47;;
5553;SDS011;2800;49.528;8.666;2022-11-02T17:35:43;15.67;;;6.50;;
5553;SDS011;2800;49.528;8.666;2022-11-02T17:38:10;21.43;;;8.30;;
5553;SDS011;2800;49.528;8.666;2022-11-02T17:40:36;30.97;;;14.87;;
5553;SDS011;2800;49.528;8.666;2022-11-02T17:43:02;30.33;;;14.60;;
5553;SDS011;2800;49.528;8.666;2022-11-02T17:45:28;26.43;;;11.27;;
5553;SDS011;2800;49.528;8.666;2022-11-02T17:47:57;18.57;;;7.90;;
5553;SDS011;2800;49.528;8.666;2022-11-02T17:50:25;18.23;;;6.03;;
5553;SDS011;2800;49.528;8.666;2022-11-02T17:52:52;15.43;;;7.87;;
5553;SDS011;2800;49.528;8.666;2022-11-02T17:55:19;19.53;;;7.70;;
5553;SDS011;2800;49.528;8.666;2022-11-02T17:57:45;18.27;;;7.40;;
5553;SDS011;2800;49.528;8.666;2022-11-02T18:00:11;16.30;;;5.57;;
5553;SDS011;2800;49.528;8.666;2022-11-02T18:02:42;17.07;;;6.10;;
5553;SDS011;2800;49.528;8.666;2022-11-02T18:05:28;19.93;;;5.80;;
5553;SDS011;2800;49.528;8.666;2022-11-02T18:07:58;13.33;;;4.87;;
5553;SDS011;2800;49.528;8.666;2022-11-02T18:10:25;14.60;;;4.90;;
5553;SDS011;2800;49.528;8.666;2022-11-02T18:12:53;12.30;;;5.10;;
5553;SDS011;2800;49.528;8.666;2022-11-02T18:15:20;14.40;;;4.13;;